createdAt,value
2023-02-15T00:00:44.073Z,102344.19
2023-02-15T00:05:46.763Z,102341.94
2023-02-15T00:10:49.463Z,102341.13
2023-02-15T00:15:52.170Z,102340.47
2023-02-15T00:20:54.892Z,102353.25
2023-02-15T00:26:13.962Z,102352.44
2023-02-15T00:31:19.108Z,102340.91
2023-02-15T00:36:21.905Z,102344.50
2023-02-15T00:41:25.106Z,102347.47
2023-02-15T00:46:27.764Z,102348.41
2023-02-15T00:51:30.900Z,102340.28
2023-02-15T00:56:33.749Z,102350.63
2023-02-15T01:01:36.591Z,102351.25
2023-02-15T01:06:39.413Z,102344.16
2023-02-15T01:11:42.220Z,102344.06
2023-02-15T01:16:45.015Z,102341.63
2023-02-15T01:21:47.798Z,102335.00
2023-02-15T01:26:50.700Z,102339.50
2023-02-15T01:31:53.580Z,102329.16
2023-02-15T01:36:56.325Z,102327.97
2023-02-15T01:41:59.125Z,102333.91
2023-02-15T01:47:01.809Z,102341.13
2023-02-15T01:52:04.813Z,102327.81
2023-02-15T01:57:12.148Z,102327.97
2023-02-15T02:02:16.470Z,102322.47
2023-02-15T02:07:21.553Z,102337.38
2023-02-15T02:12:25.399Z,102336.91
2023-02-15T02:17:43.843Z,102302.19
2023-02-15T02:23:25.411Z,102317.31
2023-02-15T02:28:43.560Z,102320.38
2023-02-15T02:34:00.982Z,102311.16
2023-02-15T02:39:18.791Z,102315.66
2023-02-15T02:44:28.421Z,102317.72
2023-02-15T02:49:43.285Z,102294.34
2023-02-15T02:54:46.480Z,102313.97
2023-02-15T02:59:50.345Z,102310.72
2023-02-15T03:05:04.716Z,102317.72
2023-02-15T03:10:10.096Z,102318.44
2023-02-15T03:15:17.974Z,102307.44
2023-02-15T03:20:31.132Z,102305.91
2023-02-15T03:26:00.131Z,102306.19
2023-02-15T03:31:07.558Z,102290.88
2023-02-15T03:36:20.367Z,102302.25
2023-02-15T03:41:26.297Z,102296.47
2023-02-15T03:46:31.948Z,102293.38
2023-02-15T03:51:39.264Z,102298.66
2023-02-15T03:56:43.490Z,102298.47
2023-02-15T04:02:06.121Z,102294.06
2023-02-15T04:07:09.841Z,102300.09
2023-02-15T04:12:12.582Z,102281.25
2023-02-15T04:17:15.209Z,102313.47
2023-02-15T04:22:36.248Z,102306.06
2023-02-15T04:27:40.123Z,102304.00
2023-02-15T04:32:43.172Z,102316.75
2023-02-15T04:37:46.103Z,102308.59
2023-02-15T04:42:50.468Z,102299.41
2023-02-15T04:47:53.586Z,102278.47
2023-02-15T04:52:56.319Z,102289.91
2023-02-15T04:57:59.071Z,102294.97
2023-02-15T05:03:01.746Z,102277.16
2023-02-15T05:08:04.540Z,102283.97
2023-02-15T05:13:07.276Z,102264.59
2023-02-15T05:18:10.391Z,102282.50
2023-02-15T05:23:13.160Z,102273.97
2023-02-15T05:28:22.449Z,102280.09
2023-02-15T05:33:25.222Z,102260.91
2023-02-15T05:38:27.730Z,102242.31
2023-02-15T05:43:30.247Z,102242.84
2023-02-15T05:48:32.714Z,102241.56
2023-02-15T05:53:35.989Z,102232.47
2023-02-15T05:58:42.416Z,102230.28
2023-02-15T06:03:46.223Z,102224.75
2023-02-15T06:08:49.108Z,102213.16
2023-02-15T06:13:51.886Z,102214.03
2023-02-15T06:18:54.552Z,102204.84
2023-02-15T06:23:57.264Z,102209.94
2023-02-15T06:28:59.944Z,102206.81
2023-02-15T06:34:02.842Z,102168.25
2023-02-15T06:39:05.839Z,102201.09
2023-02-15T06:44:08.858Z,102189.84
2023-02-15T06:49:11.612Z,102195.97
2023-02-15T06:54:14.453Z,102192.69
2023-02-15T06:59:17.486Z,102185.44
2023-02-15T07:04:20.216Z,102173.72
2023-02-15T07:09:23.712Z,102180.53
2023-02-15T07:14:28.686Z,102172.59
2023-02-15T07:19:31.836Z,102181.16
2023-02-15T07:24:34.684Z,102165.81
2023-02-15T07:29:37.334Z,102175.72
2023-02-15T07:34:40.048Z,102172.66
2023-02-15T07:39:42.770Z,102175.34
2023-02-15T07:44:45.495Z,102159.03
2023-02-15T07:49:50.630Z,102160.41
2023-02-15T07:54:53.324Z,102154.97
2023-02-15T07:59:56.260Z,102147.16
2023-02-15T08:04:58.976Z,102157.19
2023-02-15T08:10:01.802Z,102118.50
2023-02-15T08:15:06.097Z,102145.75
2023-02-15T08:20:09.866Z,102141.00
2023-02-15T08:25:12.500Z,102137.16
2023-02-15T08:30:15.902Z,102132.16
2023-02-15T08:35:18.606Z,102130.53
2023-02-15T08:40:21.474Z,102118.66
2023-02-15T08:45:26.752Z,102115.72
2023-02-15T08:50:29.640Z,102123.41
2023-02-15T08:55:32.297Z,102120.88
2023-02-15T09:00:35.014Z,102114.09
2023-02-15T09:05:38.226Z,102098.44
2023-02-15T09:10:42.945Z,102106.22
2023-02-15T09:15:45.926Z,102104.44
2023-02-15T09:20:48.666Z,102113.59
2023-02-15T09:25:51.366Z,102112.63
2023-02-15T09:30:54.654Z,102104.97
2023-02-15T09:35:58.355Z,102108.72
2023-02-15T09:41:30.097Z,102106.50
2023-02-15T09:47:07.066Z,102111.72
2023-02-15T09:52:40.677Z,102112.97
2023-02-15T09:58:10.789Z,102111.91
2023-02-15T10:03:25.650Z,102112.22
2023-02-15T10:08:43.619Z,102109.38
2023-02-15T10:14:08.162Z,102104.47
2023-02-15T10:19:28.733Z,102110.59
2023-02-15T10:24:48.743Z,102095.16
2023-02-15T10:30:11.336Z,102086.72
2023-02-15T10:35:46.455Z,102087.44
2023-02-15T10:41:14.852Z,102093.16
2023-02-15T10:46:31.381Z,102095.88
2023-02-15T10:51:43.064Z,102084.28
2023-02-15T10:57:23.291Z,102092.41
2023-02-15T11:02:35.763Z,102081.75
2023-02-15T11:07:44.791Z,102089.81
2023-02-15T11:12:54.999Z,102098.81
2023-02-15T11:18:23.389Z,102093.22
2023-02-15T11:23:27.655Z,102088.75
2023-02-15T11:28:38.794Z,102095.91
2023-02-15T11:33:46.074Z,102092.09
2023-02-15T11:38:50.958Z,102095.03
2023-02-15T11:44:05.093Z,102061.34
2023-02-15T11:49:33.636Z,102082.09
2023-02-15T11:54:38.050Z,102091.25
2023-02-15T11:59:43.815Z,102092.34
2023-02-15T12:04:51.451Z,102099.31
2023-02-15T12:10:26.434Z,102089.94
2023-02-15T12:15:33.628Z,102099.78
2023-02-15T12:20:43.977Z,102102.50
2023-02-15T12:25:57.216Z,102092.66
2023-02-15T12:31:00.376Z,102086.84
2023-02-15T12:36:11.418Z,102087.09
2023-02-15T12:41:25.313Z,102093.59
2023-02-15T12:46:28.437Z,102081.28
2023-02-15T12:51:31.158Z,102085.75
2023-02-15T12:56:33.809Z,102085.06
2023-02-15T13:01:37.587Z,102053.56
2023-02-15T13:06:49.411Z,102089.75
2023-02-15T13:11:52.102Z,102077.00
2023-02-15T13:16:59.596Z,102064.69
2023-02-15T13:22:07.384Z,102068.06
2023-02-15T13:27:16.398Z,102046.16
2023-02-15T13:32:38.468Z,102037.03
2023-02-15T13:37:53.716Z,102064.06
2023-02-15T13:43:00.438Z,102037.44
2023-02-15T13:48:09.912Z,102056.69
2023-02-15T13:53:38.534Z,102055.59
2023-02-15T13:59:20.136Z,102053.56
2023-02-15T14:04:43.528Z,102054.03
2023-02-15T14:10:08.265Z,102057.34
2023-02-15T14:15:20.022Z,102059.09
2023-02-15T14:20:45.381Z,102061.09
2023-02-15T14:25:53.183Z,102024.44
2023-02-15T14:30:56.293Z,102052.78
2023-02-15T14:36:00.559Z,102040.66
2023-02-15T14:41:19.007Z,102043.75
2023-02-15T14:46:36.502Z,102038.34
2023-02-15T14:51:46.937Z,102031.84
2023-02-15T14:57:11.226Z,102033.75
2023-02-15T15:02:19.341Z,102035.47
2023-02-15T15:07:40.356Z,102024.78
2023-02-15T15:12:48.260Z,102023.84
2023-02-15T15:17:58.789Z,102012.69
2023-02-15T15:23:16.834Z,102020.66
2023-02-15T15:28:34.614Z,102010.56
2023-02-15T15:34:16.422Z,102010.03
2023-02-15T15:39:43.600Z,102005.31
2023-02-15T15:45:21.044Z,101967.34
2023-02-15T15:50:23.843Z,101997.50
2023-02-15T15:55:29.210Z,101999.78
2023-02-15T16:00:38.022Z,101955.47
2023-02-15T16:05:40.777Z,101996.06
2023-02-15T16:10:43.665Z,101998.00
2023-02-15T16:15:51.143Z,102000.84
2023-02-15T16:20:59.094Z,102003.03
2023-02-15T16:26:26.458Z,102014.72
2023-02-15T16:31:29.198Z,102020.47
2023-02-15T16:36:32.075Z,102007.19
2023-02-15T16:41:35.065Z,102017.53
2023-02-15T16:46:47.277Z,102023.81
2023-02-15T16:52:10.382Z,102019.03
2023-02-15T16:57:17.860Z,102010.22
2023-02-15T17:02:53.226Z,102009.94
2023-02-15T17:07:53.435Z,102010.50
2023-02-15T17:12:59.052Z,102006.16
2023-02-15T17:18:06.214Z,102008.94
2023-02-15T17:23:36.129Z,102006.88
2023-02-15T17:28:38.864Z,102007.97
2023-02-15T17:33:41.582Z,102002.97
2023-02-15T17:39:23.535Z,101999.09
2023-02-15T17:44:26.011Z,102009.91
2023-02-15T17:49:35.145Z,101995.59
2023-02-15T17:54:56.039Z,102006.13
2023-02-15T18:00:16.945Z,102002.88
2023-02-15T18:05:38.588Z,102002.38
2023-02-15T18:10:59.786Z,101994.75
2023-02-15T18:16:03.277Z,102009.78
2023-02-15T18:21:11.016Z,102011.59
2023-02-15T18:26:20.807Z,102009.72
2023-02-15T18:31:24.735Z,102009.97
2023-02-15T18:36:38.098Z,102011.38
2023-02-15T18:41:40.962Z,102021.41
2023-02-15T18:46:43.871Z,102007.34
2023-02-15T18:51:46.368Z,102029.00
2023-02-15T18:56:56.442Z,102019.19
2023-02-15T19:02:00.827Z,102016.63
2023-02-15T19:07:03.555Z,102009.19
2023-02-15T19:12:06.073Z,102009.31
2023-02-15T19:17:18.222Z,102018.59
2023-02-15T19:22:29.643Z,102016.44
2023-02-15T19:27:38.109Z,102024.13
2023-02-15T19:32:40.743Z,102025.81
2023-02-15T19:37:44.592Z,102029.19
2023-02-15T19:42:47.364Z,102022.16
2023-02-15T19:47:50.354Z,102020.41
2023-02-15T19:52:53.560Z,102028.72
2023-02-15T19:57:58.416Z,102034.66
2023-02-15T20:03:01.738Z,102035.53
2023-02-15T20:08:08.743Z,102022.09
2023-02-15T20:13:21.083Z,102037.63
2023-02-15T20:18:23.472Z,102039.13
2023-02-15T20:23:31.944Z,102040.03
2023-02-15T20:28:34.680Z,102035.94
2023-02-15T20:33:37.266Z,102036.34
2023-02-15T20:38:40.181Z,102035.41
2023-02-15T20:43:43.028Z,102037.97
2023-02-15T20:48:45.949Z,102029.75
2023-02-15T20:53:49.246Z,102038.22
2023-02-15T20:58:52.902Z,102023.22
2023-02-15T21:03:55.704Z,102017.88
2023-02-15T21:08:58.440Z,102015.03
2023-02-15T21:14:01.180Z,102011.69
2023-02-15T21:19:15.617Z,102017.59
2023-02-15T21:24:27.081Z,102018.88
2023-02-15T21:29:30.746Z,102021.94
2023-02-15T21:34:33.425Z,102016.44
2023-02-15T21:39:36.669Z,102021.13
2023-02-15T21:44:58.204Z,102025.50
2023-02-15T21:50:20.902Z,102020.19
2023-02-15T21:55:23.604Z,102018.25
2023-02-15T22:00:28.022Z,102027.63
2023-02-15T22:05:33.527Z,102026.59
2023-02-15T22:10:36.304Z,102033.50
2023-02-15T22:15:39.203Z,102039.34
2023-02-15T22:20:41.779Z,102041.50
2023-02-15T22:25:47.255Z,102048.50
2023-02-15T22:30:49.904Z,102048.59
2023-02-15T22:35:53.000Z,102046.94
2023-02-15T22:40:57.881Z,102041.91
2023-02-15T22:46:04.016Z,102043.25
2023-02-15T22:51:06.755Z,102045.22
2023-02-15T22:56:17.406Z,102042.47
2023-02-15T23:01:38.777Z,102049.81
2023-02-15T23:06:41.708Z,102042.47
2023-02-15T23:11:46.204Z,102043.38
2023-02-15T23:16:49.213Z,102035.34
2023-02-15T23:21:52.011Z,102069.19
2023-02-15T23:27:15.874Z,102065.72
2023-02-15T23:32:20.673Z,102069.53
2023-02-15T23:37:23.344Z,102066.63
2023-02-15T23:42:29.507Z,102074.34
2023-02-15T23:47:53.015Z,102078.31
2023-02-15T23:52:56.546Z,102067.00
2023-02-15T23:57:59.245Z,102061.44
